createdAt,value
2023-02-19T00:01:48.288Z,66.11
2023-02-19T00:04:22.117Z,66.24
2023-02-19T00:06:50.069Z,66.45
2023-02-19T00:09:19.081Z,66.48
2023-02-19T00:11:48.141Z,66.38
2023-02-19T00:14:18.291Z,66.07
2023-02-19T00:16:46.576Z,66.05
2023-02-19T00:19:16.948Z,66.35
2023-02-19T00:21:44.768Z,66.30
2023-02-19T00:24:13.293Z,66.21
2023-02-19T00:26:41.945Z,66.02
2023-02-19T00:29:13.755Z,65.86
2023-02-19T00:31:41.878Z,65.59
2023-02-19T00:34:11.169Z,65.37
2023-02-19T00:36:40.053Z,65.06
2023-02-19T00:39:08.954Z,64.81
2023-02-19T00:41:36.804Z,64.70
2023-02-19T00:44:06.836Z,64.65
2023-02-19T00:46:43.678Z,64.47
2023-02-19T00:49:16.959Z,64.43
2023-02-19T00:51:45.117Z,64.42
2023-02-19T00:54:13.083Z,64.86
2023-02-19T00:56:41.090Z,65.04
2023-02-19T00:59:08.960Z,65.42
2023-02-19T01:01:36.322Z,65.46
2023-02-19T01:04:06.471Z,65.72
2023-02-19T01:06:35.133Z,66.32
2023-02-19T01:09:03.066Z,66.47
2023-02-19T01:11:30.971Z,66.88
2023-02-19T01:14:00.160Z,67.20
2023-02-19T01:16:28.211Z,67.52
2023-02-19T01:18:57.241Z,67.75
2023-02-19T01:21:26.193Z,67.90
2023-02-19T01:23:54.337Z,67.75
2023-02-19T01:26:25.499Z,67.55
2023-02-19T01:28:53.283Z,67.48
2023-02-19T01:31:23.240Z,67.27
2023-02-19T01:33:54.860Z,67.04
2023-02-19T01:36:22.859Z,67.00
2023-02-19T01:38:50.493Z,66.85
2023-02-19T01:41:20.619Z,66.84
2023-02-19T01:44:04.154Z,67.24
2023-02-19T01:46:39.265Z,67.45
2023-02-19T01:49:11.157Z,67.64
2023-02-19T01:51:42.349Z,67.97
2023-02-19T01:54:10.851Z,68.20
2023-02-19T01:56:40.164Z,68.43
2023-02-19T01:59:08.171Z,68.54
2023-02-19T02:01:38.062Z,68.72
2023-02-19T02:04:06.166Z,68.91
2023-02-19T02:06:41.876Z,69.09
2023-02-19T02:09:28.187Z,68.70
2023-02-19T02:11:56.000Z,68.68
2023-02-19T02:14:26.280Z,68.79
2023-02-19T02:17:24.849Z,68.80
2023-02-19T02:20:13.120Z,69.68
2023-02-19T02:23:08.182Z,70.90
2023-02-19T02:25:38.885Z,70.57
2023-02-19T02:28:21.188Z,70.52
2023-02-19T02:31:06.763Z,71.24
2023-02-19T02:33:40.017Z,71.32
2023-02-19T02:36:20.539Z,71.33
2023-02-19T02:38:48.817Z,71.75
2023-02-19T02:41:16.669Z,71.71
2023-02-19T02:43:44.129Z,71.48
2023-02-19T02:46:16.901Z,71.54
2023-02-19T02:48:54.211Z,71.54
2023-02-19T02:51:27.845Z,71.27
2023-02-19T02:54:16.903Z,71.40
2023-02-19T02:56:45.209Z,71.71
2023-02-19T02:59:14.907Z,71.75
2023-02-19T03:02:02.949Z,71.71
2023-02-19T03:04:31.816Z,71.77
2023-02-19T03:07:04.140Z,71.67
2023-02-19T03:09:40.909Z,71.38
2023-02-19T03:12:31.411Z,71.13
2023-02-19T03:15:25.791Z,70.63
2023-02-19T03:18:15.152Z,70.67
2023-02-19T03:20:46.049Z,70.88
2023-02-19T03:23:14.558Z,71.04
2023-02-19T03:26:01.049Z,70.64
2023-02-19T03:28:48.919Z,70.80
2023-02-19T03:31:19.547Z,70.83
2023-02-19T03:33:53.144Z,70.94
2023-02-19T03:36:26.054Z,70.32
2023-02-19T03:38:59.146Z,70.53
2023-02-19T03:41:33.147Z,70.97
2023-02-19T03:44:19.150Z,71.37
2023-02-19T03:47:22.420Z,71.61
2023-02-19T03:49:59.426Z,71.84
2023-02-19T03:52:46.056Z,72.11
2023-02-19T03:55:22.740Z,71.88
2023-02-19T03:57:54.155Z,71.68
2023-02-19T04:00:52.158Z,71.35
2023-02-19T04:03:24.126Z,71.35
2023-02-19T04:05:56.160Z,71.12
2023-02-19T04:08:24.944Z,71.23
2023-02-19T04:10:53.794Z,71.11
2023-02-19T04:13:26.913Z,71.13
2023-02-19T04:15:56.075Z,71.60
2023-02-19T04:18:27.169Z,71.60
2023-02-19T04:20:55.206Z,71.79
2023-02-19T04:23:25.454Z,71.74
2023-02-19T04:25:57.085Z,72.22
2023-02-19T04:28:24.452Z,72.75
2023-02-19T04:30:52.170Z,72.84
2023-02-19T04:33:20.080Z,72.95
2023-02-19T04:35:47.951Z,72.84
2023-02-19T04:38:15.609Z,72.86
2023-02-19T04:40:43.278Z,72.80
2023-02-19T04:43:10.863Z,72.74
2023-02-19T04:45:39.176Z,72.64
2023-02-19T04:48:06.865Z,72.29
2023-02-19T04:50:34.340Z,71.98
2023-02-19T04:53:02.037Z,71.66
2023-02-19T04:55:29.287Z,70.53
2023-02-19T04:57:57.093Z,70.74
2023-02-19T05:00:24.847Z,71.19
2023-02-19T05:02:52.399Z,71.63
2023-02-19T05:05:20.067Z,71.15
2023-02-19T05:07:47.965Z,70.97
2023-02-19T05:10:15.620Z,70.97
2023-02-19T05:12:43.158Z,71.12
2023-02-19T05:15:10.489Z,71.04
2023-02-19T05:17:38.039Z,71.36
2023-02-19T05:20:05.307Z,70.67
2023-02-19T05:22:33.105Z,70.80
2023-02-19T05:25:00.226Z,71.35
2023-02-19T05:27:27.658Z,71.20
2023-02-19T05:29:55.240Z,71.35
2023-02-19T05:32:22.725Z,71.31
2023-02-19T05:34:51.971Z,71.48
2023-02-19T05:37:19.499Z,71.40
2023-02-19T05:39:47.246Z,71.09
2023-02-19T05:42:15.982Z,71.04
2023-02-19T05:44:43.500Z,70.56
2023-02-19T05:47:11.427Z,70.63
2023-02-19T05:49:38.989Z,70.08
2023-02-19T05:52:06.254Z,70.16
2023-02-19T05:54:33.513Z,69.89
2023-02-19T05:57:01.257Z,69.75
2023-02-19T05:59:28.483Z,69.66
2023-02-19T06:01:57.128Z,69.86
2023-02-19T06:04:24.936Z,69.91
2023-02-19T06:06:52.341Z,70.18
2023-02-19T06:09:20.131Z,70.18
2023-02-19T06:11:48.153Z,70.36
2023-02-19T06:14:15.662Z,70.18
2023-02-19T06:16:43.273Z,71.10
2023-02-19T06:19:11.145Z,71.09
2023-02-19T06:21:39.085Z,71.62
2023-02-19T06:24:10.201Z,71.51
2023-02-19T06:26:39.143Z,71.38
2023-02-19T06:29:06.529Z,71.33
2023-02-19T06:31:34.174Z,71.30
2023-02-19T06:34:04.369Z,71.36
2023-02-19T06:36:32.103Z,71.59
2023-02-19T06:39:04.299Z,71.54
2023-02-19T06:41:32.293Z,71.28
2023-02-19T06:44:00.118Z,71.33
2023-02-19T06:46:27.217Z,71.55
2023-02-19T06:48:54.790Z,71.54
2023-02-19T06:51:24.483Z,71.33
2023-02-19T06:53:52.022Z,71.34
2023-02-19T06:56:33.427Z,71.41
2023-02-19T06:59:03.186Z,71.22
2023-02-19T07:01:32.123Z,71.29
2023-02-19T07:04:00.084Z,70.90
2023-02-19T07:06:28.236Z,70.74
2023-02-19T07:08:57.028Z,70.58
2023-02-19T07:11:24.893Z,70.38
2023-02-19T07:14:00.231Z,70.13
2023-02-19T07:16:28.331Z,70.13
2023-02-19T07:19:00.316Z,69.89
2023-02-19T07:21:28.316Z,69.89
2023-02-19T07:23:56.032Z,69.62
2023-02-19T07:26:23.558Z,69.95
2023-02-19T07:28:52.138Z,69.46
2023-02-19T07:31:22.306Z,69.00
2023-02-19T07:33:50.562Z,69.03
2023-02-19T07:36:19.325Z,68.69
2023-02-19T07:38:47.141Z,68.24
2023-02-19T07:41:14.568Z,67.90
2023-02-19T07:43:42.333Z,67.44
2023-02-19T07:46:12.103Z,66.96
2023-02-19T07:48:40.943Z,66.54
2023-02-19T07:51:11.802Z,66.25
2023-02-19T07:53:39.340Z,65.53
2023-02-19T07:56:08.151Z,65.08
2023-02-19T07:58:35.704Z,65.08
2023-02-19T08:01:18.408Z,65.00
2023-02-19T08:03:47.760Z,65.34
2023-02-19T08:06:16.262Z,65.47
2023-02-19T08:08:44.173Z,66.25
2023-02-19T08:11:30.173Z,67.64
2023-02-19T08:13:57.955Z,70.24
2023-02-19T08:16:40.628Z,70.66
2023-02-19T08:19:10.069Z,72.08
2023-02-19T08:21:37.332Z,72.48
2023-02-19T08:24:05.157Z,72.76
2023-02-19T08:26:33.262Z,74.33
2023-02-19T08:29:01.220Z,74.25
2023-02-19T08:31:29.201Z,75.16
2023-02-19T08:33:56.757Z,75.59
2023-02-19T08:36:24.372Z,77.00
2023-02-19T08:38:52.109Z,79.23
2023-02-19T08:41:19.260Z,78.64
2023-02-19T08:43:47.054Z,79.17
2023-02-19T08:46:14.768Z,78.65
2023-02-19T08:48:42.382Z,78.79
2023-02-19T08:51:12.573Z,78.69
2023-02-19T08:53:41.277Z,79.79
2023-02-19T08:56:13.327Z,79.63
2023-02-19T08:58:41.291Z,79.77
2023-02-19T09:01:11.549Z,79.70
2023-02-19T09:03:39.480Z,80.43
2023-02-19T09:06:07.736Z,81.77
2023-02-19T09:08:35.305Z,81.15
2023-02-19T09:11:04.770Z,81.84
2023-02-19T09:13:32.302Z,82.27
2023-02-19T09:15:59.964Z,82.16
2023-02-19T09:18:27.305Z,82.18
2023-02-19T09:20:54.963Z,82.25
2023-02-19T09:23:22.604Z,80.82
2023-02-19T09:25:57.401Z,81.67
2023-02-19T09:28:25.103Z,81.36
2023-02-19T09:30:52.401Z,81.30
2023-02-19T09:33:20.098Z,80.38
2023-02-19T09:35:47.400Z,81.03
2023-02-19T09:38:15.105Z,80.37
2023-02-19T09:40:42.425Z,80.36
2023-02-19T09:43:15.501Z,78.94
2023-02-19T09:45:43.285Z,78.79
2023-02-19T09:48:12.418Z,80.08
2023-02-19T09:50:44.421Z,78.77
2023-02-19T09:53:25.039Z,77.71
2023-02-19T09:55:53.243Z,77.43
2023-02-19T09:58:28.327Z,76.38
2023-02-19T10:00:57.434Z,75.56
2023-02-19T10:03:31.242Z,73.99
2023-02-19T10:06:02.052Z,72.73
2023-02-19T10:08:32.429Z,70.78
2023-02-19T10:11:01.429Z,62.97
2023-02-19T10:13:34.918Z,62.61
2023-02-19T10:16:04.588Z,57.79
2023-02-19T10:18:41.441Z,59.22
2023-02-19T10:21:12.226Z,60.61
2023-02-19T10:23:40.669Z,60.31
2023-02-19T10:26:08.054Z,59.38
2023-02-19T10:28:36.613Z,58.55
2023-02-19T10:31:11.543Z,61.47
2023-02-19T10:33:52.443Z,63.16
2023-02-19T10:36:25.449Z,63.29
2023-02-19T10:38:53.685Z,62.88
2023-02-19T10:41:23.771Z,62.93
2023-02-19T10:44:29.832Z,63.58
2023-02-19T10:46:59.548Z,61.34
2023-02-19T10:49:33.370Z,56.16
2023-02-19T10:52:03.545Z,52.47
2023-02-19T10:54:35.665Z,49.78
2023-02-19T10:57:15.413Z,48.62
2023-02-19T10:59:54.465Z,46.24
2023-02-19T11:02:22.145Z,46.12
2023-02-19T11:05:15.390Z,44.35
2023-02-19T11:07:58.389Z,45.94
2023-02-19T11:10:27.952Z,43.51
2023-02-19T11:12:58.475Z,42.49
2023-02-19T11:15:31.869Z,45.03
2023-02-19T11:18:25.564Z,43.31
2023-02-19T11:20:55.856Z,41.85
2023-02-19T11:23:33.568Z,41.05
2023-02-19T11:26:04.331Z,40.59
2023-02-19T11:28:40.162Z,39.18
2023-02-19T11:31:20.296Z,39.19
2023-02-19T11:33:55.863Z,38.02
2023-02-19T11:36:30.109Z,36.35
2023-02-19T11:38:59.964Z,35.94
2023-02-19T11:41:41.505Z,34.29
2023-02-19T11:44:34.264Z,33.00
2023-02-19T11:47:22.884Z,31.67
2023-02-19T11:50:09.411Z,31.51
2023-02-19T11:53:06.429Z,31.53
2023-02-19T11:56:17.168Z,30.25
2023-02-19T11:59:04.173Z,30.18
2023-02-19T12:02:05.468Z,30.44
2023-02-19T12:05:04.442Z,29.35
2023-02-19T12:07:56.430Z,30.91
2023-02-19T12:10:52.737Z,33.57
2023-02-19T12:13:41.178Z,34.73
2023-02-19T12:16:21.532Z,34.44
2023-02-19T12:19:26.066Z,33.89
2023-02-19T12:22:11.745Z,32.28
2023-02-19T12:25:01.430Z,31.62
2023-02-19T12:27:50.446Z,30.76
2023-02-19T12:30:48.775Z,30.50
2023-02-19T12:33:31.450Z,29.80
2023-02-19T12:36:02.458Z,31.93
2023-02-19T12:38:44.755Z,38.01
2023-02-19T12:41:22.296Z,46.13
2023-02-19T12:44:20.193Z,49.58
2023-02-19T12:46:53.630Z,51.79
2023-02-19T12:49:27.298Z,53.00
2023-02-19T12:51:59.740Z,54.94
2023-02-19T12:54:44.767Z,56.17
2023-02-19T12:57:21.442Z,56.55
2023-02-19T13:00:04.933Z,50.93
2023-02-19T13:02:38.980Z,49.15
2023-02-19T13:05:26.146Z,47.16
2023-02-19T13:07:57.651Z,48.83
2023-02-19T13:10:34.567Z,47.83
2023-02-19T13:13:07.681Z,50.25
2023-02-19T13:15:39.030Z,62.37
2023-02-19T13:18:14.331Z,63.08
2023-02-19T13:20:43.461Z,64.48
2023-02-19T13:23:38.580Z,62.69
2023-02-19T13:26:24.334Z,64.32
2023-02-19T13:29:14.234Z,65.94
2023-02-19T13:32:12.348Z,66.05
2023-02-19T13:34:57.240Z,66.48
2023-02-19T13:37:24.958Z,67.02
2023-02-19T13:39:54.499Z,68.04
2023-02-19T13:42:34.679Z,67.58
2023-02-19T13:45:06.875Z,68.77
2023-02-19T13:47:51.238Z,66.57
2023-02-19T13:50:25.278Z,66.80
2023-02-19T13:52:57.605Z,66.03
2023-02-19T13:55:43.483Z,66.62
2023-02-19T13:58:33.128Z,66.45
2023-02-19T14:01:10.855Z,66.63
2023-02-19T14:03:51.063Z,67.22
2023-02-19T14:06:18.993Z,64.31
2023-02-19T14:08:56.413Z,64.33
2023-02-19T14:11:42.426Z,63.66
2023-02-19T14:14:35.615Z,62.66
2023-02-19T14:17:42.615Z,62.12
2023-02-19T14:20:10.239Z,60.72
2023-02-19T14:22:53.219Z,62.06
2023-02-19T14:25:41.998Z,58.73
2023-02-19T14:28:27.497Z,59.69
2023-02-19T14:31:01.252Z,59.62
2023-02-19T14:33:35.263Z,60.04
2023-02-19T14:36:19.653Z,59.46
2023-02-19T14:38:51.247Z,60.98
2023-02-19T14:41:19.548Z,59.42
2023-02-19T14:43:50.250Z,60.06
2023-02-19T14:46:26.520Z,59.98
2023-02-19T14:48:54.385Z,59.87
2023-02-19T14:51:24.507Z,58.89
2023-02-19T14:53:53.508Z,59.08
2023-02-19T14:56:24.268Z,59.12
2023-02-19T14:59:24.925Z,58.41
2023-02-19T15:01:57.647Z,60.53
2023-02-19T15:04:29.285Z,60.85
2023-02-19T15:06:57.259Z,61.81
2023-02-19T15:09:31.263Z,62.86
2023-02-19T15:11:59.396Z,62.62
2023-02-19T15:14:30.870Z,62.62
2023-02-19T15:17:01.657Z,62.17
2023-02-19T15:19:33.264Z,62.48
2023-02-19T15:22:02.267Z,62.52
2023-02-19T15:24:29.860Z,62.14
2023-02-19T15:26:57.570Z,62.55
2023-02-19T15:29:27.557Z,62.52
2023-02-19T15:32:00.485Z,63.07
2023-02-19T15:34:30.288Z,63.79
2023-02-19T15:37:08.423Z,64.14
2023-02-19T15:39:46.696Z,63.96
2023-02-19T15:42:35.021Z,65.59
2023-02-19T15:45:19.701Z,65.43
2023-02-19T15:47:53.206Z,66.58
2023-02-19T15:50:35.408Z,66.63
2023-02-19T15:53:04.712Z,67.30
2023-02-19T15:55:47.435Z,66.47
2023-02-19T15:58:18.054Z,67.99
2023-02-19T16:00:51.054Z,69.34
2023-02-19T16:03:20.898Z,67.95
2023-02-19T16:06:11.605Z,68.76
2023-02-19T16:08:40.449Z,67.37
2023-02-19T16:11:34.713Z,67.34
2023-02-19T16:14:33.901Z,67.26
2023-02-19T16:17:12.712Z,68.36
2023-02-19T16:19:43.709Z,69.87
2023-02-19T16:22:13.577Z,71.90
2023-02-19T16:24:46.447Z,72.33
2023-02-19T16:27:14.716Z,73.21
2023-02-19T16:29:45.577Z,74.90
2023-02-19T16:32:17.501Z,75.29
2023-02-19T16:34:47.736Z,73.93
2023-02-19T16:37:35.074Z,75.49
2023-02-19T16:40:08.491Z,75.62
2023-02-19T16:43:23.820Z,75.36
2023-02-19T16:45:51.373Z,76.24
2023-02-19T16:48:19.917Z,76.94
2023-02-19T16:50:47.588Z,77.11
2023-02-19T16:53:23.077Z,77.94
2023-02-19T16:55:52.752Z,76.90
2023-02-19T16:58:21.562Z,77.16
2023-02-19T17:00:49.626Z,77.42
2023-02-19T17:03:22.508Z,76.85
2023-02-19T17:05:50.834Z,78.13
2023-02-19T17:08:43.559Z,77.31
2023-02-19T17:11:14.327Z,78.20
2023-02-19T17:13:42.936Z,78.12
2023-02-19T17:16:21.497Z,78.22
2023-02-19T17:18:49.757Z,77.71
2023-02-19T17:21:28.936Z,78.84
2023-02-19T17:23:59.759Z,77.85
2023-02-19T17:26:32.278Z,77.77
2023-02-19T17:29:01.125Z,77.92
2023-02-19T17:31:29.005Z,77.81
2023-02-19T17:33:56.947Z,78.18
2023-02-19T17:36:30.739Z,78.01
2023-02-19T17:38:59.599Z,77.16
2023-02-19T17:41:27.685Z,77.56
2023-02-19T17:43:55.774Z,78.22
2023-02-19T17:46:25.290Z,77.87
2023-02-19T17:48:54.117Z,77.67
2023-02-19T17:51:22.300Z,77.46
2023-02-19T17:53:49.965Z,77.36
2023-02-19T17:56:19.592Z,77.90
2023-02-19T17:58:47.782Z,77.19
2023-02-19T18:01:15.957Z,76.87
2023-02-19T18:03:44.378Z,77.71
2023-02-19T18:06:12.489Z,76.44
2023-02-19T18:08:40.485Z,76.92
2023-02-19T18:11:08.317Z,76.34
2023-02-19T18:13:35.975Z,76.93
2023-02-19T18:16:03.768Z,76.68
2023-02-19T18:18:31.480Z,76.51
2023-02-19T18:20:59.159Z,76.55
2023-02-19T18:23:26.614Z,76.67
2023-02-19T18:25:54.502Z,77.13
2023-02-19T18:28:21.980Z,77.59
2023-02-19T18:30:49.978Z,77.40
2023-02-19T18:33:18.158Z,77.14
2023-02-19T18:35:49.455Z,77.51
2023-02-19T18:38:16.991Z,77.41
2023-02-19T18:40:44.503Z,77.37
2023-02-19T18:43:12.332Z,78.10
2023-02-19T18:45:40.338Z,77.36
2023-02-19T18:48:09.508Z,78.06
2023-02-19T18:50:38.117Z,78.35
2023-02-19T18:53:05.824Z,77.86
2023-02-19T18:55:33.643Z,78.31
2023-02-19T18:58:01.642Z,77.60
2023-02-19T19:00:29.778Z,77.00
2023-02-19T19:03:00.184Z,76.71
2023-02-19T19:05:28.653Z,77.01
2023-02-19T19:07:59.613Z,76.18
2023-02-19T19:10:27.326Z,75.52
2023-02-19T19:12:55.700Z,75.15
2023-02-19T19:15:23.521Z,75.04
2023-02-19T19:17:51.404Z,74.98
2023-02-19T19:20:23.201Z,74.87
2023-02-19T19:22:52.857Z,74.62
2023-02-19T19:25:22.964Z,74.72
2023-02-19T19:27:52.030Z,74.01
2023-02-19T19:30:20.578Z,74.06
2023-02-19T19:32:49.883Z,74.00
2023-02-19T19:35:20.863Z,74.11
2023-02-19T19:37:49.028Z,74.64
2023-02-19T19:40:17.692Z,74.26
2023-02-19T19:42:45.985Z,73.99
2023-02-19T19:45:14.895Z,74.39
2023-02-19T19:47:42.546Z,73.94
2023-02-19T19:50:10.717Z,74.19
2023-02-19T19:52:38.534Z,73.86
2023-02-19T19:55:07.163Z,73.84
2023-02-19T19:57:34.874Z,73.11
2023-02-19T20:00:03.241Z,73.51
2023-02-19T20:02:31.160Z,72.62
2023-02-19T20:04:59.045Z,72.66
2023-02-19T20:07:28.695Z,71.61
2023-02-19T20:09:56.540Z,72.14
2023-02-19T20:12:24.276Z,71.20
2023-02-19T20:14:51.713Z,71.59
2023-02-19T20:17:19.701Z,70.40
2023-02-19T20:19:47.543Z,67.55
2023-02-19T20:22:15.249Z,68.73
2023-02-19T20:24:43.240Z,68.69
2023-02-19T20:27:11.060Z,67.50
2023-02-19T20:29:38.534Z,67.79
2023-02-19T20:32:05.954Z,67.54
2023-02-19T20:34:33.549Z,67.46
2023-02-19T20:37:01.552Z,67.99
2023-02-19T20:39:30.192Z,68.21
2023-02-19T20:41:59.199Z,67.69
2023-02-19T20:44:27.644Z,68.06
2023-02-19T20:46:56.253Z,67.23
2023-02-19T20:49:26.723Z,67.82
2023-02-19T20:51:58.242Z,67.34
2023-02-19T20:54:28.258Z,68.06
2023-02-19T20:56:57.515Z,68.05
2023-02-19T20:59:27.563Z,67.36
2023-02-19T21:01:55.229Z,67.98
2023-02-19T21:04:23.531Z,67.40
2023-02-19T21:06:52.561Z,67.08
2023-02-19T21:09:21.927Z,65.32
2023-02-19T21:11:50.441Z,65.47
2023-02-19T21:14:18.564Z,67.39
2023-02-19T21:16:46.275Z,65.95
2023-02-19T21:19:13.938Z,68.04
2023-02-19T21:21:41.534Z,67.51
2023-02-19T21:24:09.940Z,68.79
2023-02-19T21:26:39.020Z,66.53
2023-02-19T21:29:08.013Z,66.70
2023-02-19T21:31:40.798Z,64.95
2023-02-19T21:34:10.274Z,63.48
2023-02-19T21:36:39.660Z,62.23
2023-02-19T21:39:08.460Z,62.94
2023-02-19T21:41:36.107Z,60.59
2023-02-19T21:44:04.401Z,60.24
2023-02-19T21:46:33.207Z,60.87
2023-02-19T21:49:01.065Z,61.06
2023-02-19T21:51:34.673Z,59.63
2023-02-19T21:54:02.906Z,58.85
2023-02-19T21:56:33.565Z,58.59
2023-02-19T21:59:02.269Z,58.77
2023-02-19T22:01:32.581Z,59.29
2023-02-19T22:04:00.583Z,58.84
2023-02-19T22:06:29.809Z,59.72
2023-02-19T22:08:57.970Z,59.58
2023-02-19T22:11:26.654Z,59.12
2023-02-19T22:13:54.593Z,59.13
2023-02-19T22:16:22.175Z,58.11
2023-02-19T22:18:53.783Z,58.59
2023-02-19T22:21:22.684Z,58.62
2023-02-19T22:23:51.314Z,58.02
2023-02-19T22:26:25.954Z,58.00
2023-02-19T22:28:55.232Z,59.17
2023-02-19T22:31:24.839Z,58.95
2023-02-19T22:33:52.793Z,59.09
2023-02-19T22:36:25.275Z,59.19
2023-02-19T22:38:53.325Z,59.26
2023-02-19T22:41:21.612Z,59.15
2023-02-19T22:43:49.217Z,59.87
2023-02-19T22:46:24.487Z,58.43
2023-02-19T22:48:52.011Z,59.35
2023-02-19T22:51:21.695Z,58.27
2023-02-19T22:53:51.336Z,58.07
2023-02-19T22:56:20.351Z,57.75
2023-02-19T22:58:48.008Z,57.84
2023-02-19T23:01:15.783Z,57.88
2023-02-19T23:03:46.617Z,57.87
2023-02-19T23:06:14.582Z,58.06
2023-02-19T23:08:43.021Z,58.19
2023-02-19T23:11:13.711Z,58.65
2023-02-19T23:13:42.639Z,59.37
2023-02-19T23:16:10.136Z,58.26
2023-02-19T23:18:37.717Z,58.41
2023-02-19T23:21:05.034Z,57.66
2023-02-19T23:23:32.721Z,58.22
2023-02-19T23:26:00.366Z,58.24
2023-02-19T23:28:27.662Z,59.06
2023-02-19T23:30:55.251Z,58.93
2023-02-19T23:33:22.716Z,57.84
2023-02-19T23:35:50.371Z,57.52
2023-02-19T23:38:18.050Z,58.65
2023-02-19T23:40:45.731Z,57.18
2023-02-19T23:43:13.212Z,56.87
2023-02-19T23:45:40.763Z,56.97
2023-02-19T23:48:08.111Z,56.11
2023-02-19T23:50:35.626Z,56.01
2023-02-19T23:53:02.855Z,56.76
2023-02-19T23:55:30.315Z,56.99
2023-02-19T23:57:57.866Z,56.66
